Time;durP1;ratioP1;P1;durP2;ratioP2;P2;SDS_P1;SDS_P2;PMS_P1;PMS_P2;Temp;Humidity;BMP_temperature;BMP_pressure;BME280_temperature;BME280_humidity;BME280_pressure;Samples;Min_cycle;Max_cycle;Signal;HPM_P1;HPM_P2
2023/01/06 00:00:14;;;;;;;14.15;4.22;;;;;;;;;;4984772;28;99360;-78
2023/01/06 00:02:40;;;;;;;10.82;3.67;;;;;;;;;;4983795;28;99748;-79
2023/01/06 00:05:07;;;;;;;15.07;4.03;;;;;;;;;;4988685;28;99925;-79
2023/01/06 00:07:33;;;;;;;10.63;3.42;;;;;;;;;;4984567;28;100132;-78
2023/01/06 00:09:59;;;;;;;9.60;3.40;;;;;;;;;;4984141;28;100120;-79
2023/01/06 00:12:26;;;;;;;11.32;3.42;;;;;;;;;;4984151;28;99360;-79
2023/01/06 00:14:52;;;;;;;18.83;3.58;;;;;;;;;;4984487;28;99340;-78
2023/01/06 00:17:19;;;;;;;7.18;2.90;;;;;;;;;;4984498;28;99618;-78
2023/01/06 00:19:45;;;;;;;13.10;3.88;;;;;;;;;;4984455;28;98931;-78
2023/01/06 00:22:11;;;;;;;13.73;2.67;;;;;;;;;;4984521;28;99921;-78
2023/01/06 00:24:38;;;;;;;8.35;2.40;;;;;;;;;;4983767;28;100430;-78
2023/01/06 00:27:04;;;;;;;9.50;2.63;;;;;;;;;;4987759;28;100964;-78
2023/01/06 00:29:31;;;;;;;13.80;2.92;;;;;;;;;;4983809;28;100194;-79
2023/01/06 00:31:59;;;;;;;8.38;2.28;;;;;;;;;;4989545;28;98668;-79
2023/01/06 00:34:25;;;;;;;14.50;2.72;;;;;;;;;;4993502;28;99098;-78
2023/01/06 00:36:52;;;;;;;4.43;1.77;;;;;;;;;;4990343;28;99294;-78
2023/01/06 00:39:18;;;;;;;6.55;2.25;;;;;;;;;;4991806;28;99478;-78
2023/01/06 00:42:03;;;;;;;9.70;3.30;;;;;;;;;;4990818;28;101054;-78
2023/01/06 00:44:30;;;;;;;8.95;2.63;;;;;;;;;;4990146;28;99298;-77
2023/01/06 00:46:56;;;;;;;3.22;2.60;;;;;;;;;;4989297;28;101416;-78
2023/01/06 00:49:23;;;;;;;6.03;2.95;;;;;;;;;;4994441;28;99278;-78
2023/01/06 00:51:49;;;;;;;7.53;3.28;;;;;;;;;;4990185;28;100052;-78
2023/01/06 00:54:16;;;;;;;5.63;3.65;;;;;;;;;;4991809;28;98443;-78
2023/01/06 00:56:44;;;;;;;5.47;3.58;;;;;;;;;;4990630;28;99093;-78
2023/01/06 00:59:11;;;;;;;6.25;4.30;;;;;;;;;;4990561;28;98707;-78
2023/01/06 01:01:38;;;;;;;7.38;4.40;;;;;;;;;;4990048;28;100104;-78
2023/01/06 01:04:04;;;;;;;5.43;3.95;;;;;;;;;;4990559;28;98800;-78
2023/01/06 01:06:31;;;;;;;11.45;4.80;;;;;;;;;;4988998;28;100849;-77
2023/01/06 01:08:58;;;;;;;6.13;4.38;;;;;;;;;;4994678;28;100371;-78
2023/01/06 01:14:14;;;;;;;7.25;4.57;;;;;;;;;;4989388;28;101236;-79
2023/01/06 01:16:41;;;;;;;8.82;4.88;;;;;;;;;;4991165;28;98904;-77
2023/01/06 01:19:09;;;;;;;9.43;4.68;;;;;;;;;;4991156;28;98415;-78
2023/01/06 01:21:36;;;;;;;7.38;4.50;;;;;;;;;;4990651;28;99287;-78
2023/01/06 01:24:02;;;;;;;9.90;5.45;;;;;;;;;;4991567;28;98847;-78
2023/01/06 01:26:29;;;;;;;7.65;4.75;;;;;;;;;;5021670;28;101160;-78
2023/01/06 01:28:55;;;;;;;8.68;4.28;;;;;;;;;;4991435;28;99272;-79
2023/01/06 01:31:22;;;;;;;11.48;3.70;;;;;;;;;;4994670;28;100036;-78
2023/01/06 01:33:48;;;;;;;9.55;3.67;;;;;;;;;;4989113;28;100842;-78
2023/01/06 01:36:16;;;;;;;12.80;3.67;;;;;;;;;;4991142;28;99049;-78
2023/01/06 01:38:42;;;;;;;6.15;3.20;;;;;;;;;;4989667;28;101086;-78
2023/01/06 01:41:13;;;;;;;6.38;3.10;;;;;;;;;;4988269;28;101775;-79
2023/01/06 01:43:43;;;;;;;9.93;4.15;;;;;;;;;;4987523;28;99028;-78
2023/01/06 01:46:11;;;;;;;5.18;2.75;;;;;;;;;;4986290;28;99331;-78
2023/01/06 01:48:37;;;;;;;7.28;3.55;;;;;;;;;;4984900;28;101831;-78
2023/01/06 01:51:06;;;;;;;4.88;2.85;;;;;;;;;;4985752;28;102373;-78
2023/01/06 01:53:37;;;;;;;3.78;2.78;;;;;;;;;;4990606;28;99912;-77
2023/01/06 01:56:07;;;;;;;8.15;2.58;;;;;;;;;;4986633;28;100042;-77
2023/01/06 01:58:35;;;;;;;3.65;2.72;;;;;;;;;;4985306;28;100875;-77
2023/01/06 02:01:03;;;;;;;6.82;2.60;;;;;;;;;;4986905;28;99150;-77
2023/01/06 02:03:29;;;;;;;3.70;2.88;;;;;;;;;;4984757;28;100213;-78
2023/01/06 02:05:59;;;;;;;6.90;2.88;;;;;;;;;;4984968;28;101244;-77
2023/01/06 02:08:32;;;;;;;4.55;2.65;;;;;;;;;;4986503;28;98305;-77
2023/01/06 02:10:58;;;;;;;5.88;2.75;;;;;;;;;;4986800;28;99187;-77
2023/01/06 02:13:25;;;;;;;6.68;2.88;;;;;;;;;;4985275;28;101642;-77
2023/01/06 02:15:55;;;;;;;5.45;2.85;;;;;;;;;;4987841;28;101948;-77
2023/01/06 02:18:30;;;;;;;2.80;2.60;;;;;;;;;;4985020;28;101685;-77
2023/01/06 02:21:03;;;;;;;7.07;2.75;;;;;;;;;;4987262;28;99200;-77
2023/01/06 02:23:51;;;;;;;5.00;2.85;;;;;;;;;;4984516;28;101576;-77
2023/01/06 02:26:26;;;;;;;7.43;2.30;;;;;;;;;;5002900;28;100973;-78
2023/01/06 02:28:53;;;;;;;9.20;2.40;;;;;;;;;;4985683;28;100342;-77
2023/01/06 02:31:38;;;;;;;5.95;2.65;;;;;;;;;;4984302;28;99332;-77
2023/01/06 02:34:24;;;;;;;11.85;2.60;;;;;;;;;;4986083;28;99114;-77
2023/01/06 02:36:57;;;;;;;5.78;2.30;;;;;;;;;;4986464;28;99129;-77
2023/01/06 02:39:27;;;;;;;8.27;2.40;;;;;;;;;;4988755;28;99121;-77
2023/01/06 02:41:57;;;;;;;3.60;2.15;;;;;;;;;;4984794;28;99938;-77
2023/01/06 02:44:29;;;;;;;5.25;2.55;;;;;;;;;;4984499;28;98916;-78
2023/01/06 02:46:56;;;;;;;5.35;2.33;;;;;;;;;;4985105;28;100337;-78
2023/01/06 02:49:37;;;;;;;7.43;2.45;;;;;;;;;;4984270;28;100105;-78
2023/01/06 02:52:18;;;;;;;4.75;2.13;;;;;;;;;;4984776;28;100617;-78
2023/01/06 02:54:47;;;;;;;4.00;1.92;;;;;;;;;;4985754;28;98853;-77
2023/01/06 02:57:17;;;;;;;4.70;2.63;;;;;;;;;;4984650;28;101322;-77
2023/01/06 03:00:03;;;;;;;3.47;2.05;;;;;;;;;;4984314;28;102273;-78
2023/01/06 03:02:30;;;;;;;10.30;2.53;;;;;;;;;;4987504;28;100471;-78
2023/01/06 03:04:58;;;;;;;5.63;2.30;;;;;;;;;;4983566;28;101430;-78
2023/01/06 03:07:27;;;;;;;4.10;2.90;;;;;;;;;;4984314;28;101150;-77
2023/01/06 03:09:54;;;;;;;4.53;2.10;;;;;;;;;;4986273;28;99228;-77
2023/01/06 03:12:31;;;;;;;5.10;2.53;;;;;;;;;;4984782;28;100063;-77
2023/01/06 03:14:58;;;;;;;11.30;2.63;;;;;;;;;;4984752;28;101784;-77
2023/01/06 03:17:24;;;;;;;5.10;2.10;;;;;;;;;;4983607;28;101185;-77
2023/01/06 03:19:51;;;;;;;3.78;2.25;;;;;;;;;;4983545;28;99171;-76
2023/01/06 03:22:18;;;;;;;3.40;2.60;;;;;;;;;;4987578;28;101859;-77
2023/01/06 03:24:45;;;;;;;8.15;2.92;;;;;;;;;;4984307;28;101119;-77
2023/01/06 03:27:13;;;;;;;4.85;2.95;;;;;;;;;;4985571;28;99080;-78
2023/01/06 03:29:39;;;;;;;4.80;2.42;;;;;;;;;;4984085;28;99654;-77
2023/01/06 03:32:07;;;;;;;5.05;2.80;;;;;;;;;;4983571;28;99369;-77
2023/01/06 03:34:56;;;;;;;7.53;2.60;;;;;;;;;;4984687;28;99762;-77
2023/01/06 03:37:22;;;;;;;4.60;2.40;;;;;;;;;;4985722;28;99197;-76
2023/01/06 03:39:56;;;;;;;5.50;2.28;;;;;;;;;;4984514;28;100519;-76
2023/01/06 03:45:31;;;;;;;4.35;2.40;;;;;;;;;;4986800;28;99316;-76
2023/01/06 03:47:58;;;;;;;6.75;2.17;;;;;;;;;;4983230;28;100635;-77
2023/01/06 03:50:29;;;;;;;5.35;2.47;;;;;;;;;;4984041;28;98432;-77
2023/01/06 03:53:07;;;;;;;8.60;2.38;;;;;;;;;;4983637;28;98967;-77
2023/01/06 03:55:35;;;;;;;4.88;2.85;;;;;;;;;;4983021;28;98997;-76
2023/01/06 03:58:03;;;;;;;5.20;2.17;;;;;;;;;;4982628;28;101714;-76
2023/01/06 04:00:31;;;;;;;3.42;2.10;;;;;;;;;;4983131;28;101780;-76
2023/01/06 04:03:06;;;;;;;7.63;2.05;;;;;;;;;;4983155;28;100289;-76
2023/01/06 04:05:32;;;;;;;4.10;2.05;;;;;;;;;;4982418;28;99156;-76
2023/01/06 04:08:00;;;;;;;8.73;2.17;;;;;;;;;;4985988;28;98987;-76
2023/01/06 04:10:27;;;;;;;8.02;1.90;;;;;;;;;;4983204;28;100552;-76
2023/01/06 04:12:56;;;;;;;2.38;1.50;;;;;;;;;;4983511;28;99175;-76
2023/01/06 04:15:31;;;;;;;2.25;1.65;;;;;;;;;;4983370;28;101056;-75
2023/01/06 04:17:59;;;;;;;4.28;1.45;;;;;;;;;;4983480;28;99313;-76
2023/01/06 04:20:29;;;;;;;9.60;2.40;;;;;;;;;;4984425;28;99777;-76
2023/01/06 04:23:04;;;;;;;3.42;1.75;;;;;;;;;;4982253;28;99996;-76
2023/01/06 04:25:35;;;;;;;4.35;1.92;;;;;;;;;;4984404;28;100108;-75
2023/01/06 04:28:07;;;;;;;2.47;1.67;;;;;;;;;;4984684;28;99004;-76
2023/01/06 04:30:34;;;;;;;9.45;2.05;;;;;;;;;;4985759;28;99860;-76
2023/01/06 04:33:01;;;;;;;4.00;1.70;;;;;;;;;;4983159;28;100130;-76
2023/01/06 04:35:27;;;;;;;4.95;2.15;;;;;;;;;;4984170;28;99161;-77
2023/01/06 04:37:54;;;;;;;7.25;1.90;;;;;;;;;;4982410;28;101238;-77
2023/01/06 04:40:20;;;;;;;5.72;2.22;;;;;;;;;;4984739;28;100734;-77
2023/01/06 04:43:05;;;;;;;4.13;1.58;;;;;;;;;;4984311;28;98500;-76
2023/01/06 04:45:32;;;;;;;3.60;2.03;;;;;;;;;;4985734;28;99844;-75
2023/01/06 04:47:59;;;;;;;7.90;2.17;;;;;;;;;;4988406;28;99310;-75
2023/01/06 04:50:25;;;;;;;4.75;1.92;;;;;;;;;;4985307;28;99635;-75
2023/01/06 04:52:52;;;;;;;3.30;1.77;;;;;;;;;;4988003;28;100194;-77
2023/01/06 04:55:18;;;;;;;6.35;1.92;;;;;;;;;;4984546;28;99009;-75
2023/01/06 04:57:45;;;;;;;4.97;2.22;;;;;;;;;;4983642;28;99377;-75
2023/01/06 05:00:11;;;;;;;4.43;1.80;;;;;;;;;;4983992;28;100335;-75
2023/01/06 05:02:37;;;;;;;1.88;1.65;;;;;;;;;;4983833;28;101579;-75
2023/01/06 05:05:04;;;;;;;5.07;1.77;;;;;;;;;;4984032;28;99860;-76
2023/01/06 05:07:30;;;;;;;4.93;2.00;;;;;;;;;;4983864;28;99975;-76
2023/01/06 05:09:57;;;;;;;3.25;1.60;;;;;;;;;;4983972;28;99232;-76
2023/01/06 05:12:23;;;;;;;4.07;2.15;;;;;;;;;;4982658;28;101225;-76
2023/01/06 05:14:49;;;;;;;4.38;2.10;;;;;;;;;;4986934;28;98568;-76
2023/01/06 05:17:16;;;;;;;3.00;1.77;;;;;;;;;;4986371;28;100189;-75
2023/01/06 05:19:43;;;;;;;5.43;1.95;;;;;;;;;;4986646;28;100388;-75
2023/01/06 05:22:10;;;;;;;4.43;2.45;;;;;;;;;;4987281;28;100181;-76
2023/01/06 05:24:36;;;;;;;6.60;2.35;;;;;;;;;;4986901;28;100317;-75
2023/01/06 05:27:03;;;;;;;2.83;1.73;;;;;;;;;;4986877;28;100353;-75
2023/01/06 05:29:30;;;;;;;2.13;1.70;;;;;;;;;;4987516;28;99145;-75
2023/01/06 05:31:57;;;;;;;4.25;1.95;;;;;;;;;;4987307;28;100718;-76
2023/01/06 05:34:23;;;;;;;2.42;2.13;;;;;;;;;;4989702;28;100003;-76
2023/01/06 05:36:49;;;;;;;5.03;2.08;;;;;;;;;;4986867;28;100271;-76
2023/01/06 05:39:16;;;;;;;2.75;1.65;;;;;;;;;;4986737;28;99951;-76
2023/01/06 05:41:42;;;;;;;3.15;2.13;;;;;;;;;;4986944;28;99150;-76
2023/01/06 05:44:09;;;;;;;4.25;2.30;;;;;;;;;;4987428;28;99250;-76
2023/01/06 05:46:35;;;;;;;2.75;1.98;;;;;;;;;;4986375;28;99217;-76
2023/01/06 05:49:02;;;;;;;3.83;1.80;;;;;;;;;;4987079;28;99040;-76
2023/01/06 05:51:28;;;;;;;4.72;2.13;;;;;;;;;;4986748;28;100399;-76
2023/01/06 05:53:54;;;;;;;4.43;1.83;;;;;;;;;;4986735;28;99992;-76
2023/01/06 05:56:21;;;;;;;4.88;1.88;;;;;;;;;;4990300;28;99413;-76
2023/01/06 05:58:49;;;;;;;4.88;1.80;;;;;;;;;;4986553;28;99025;-76
2023/01/06 06:01:15;;;;;;;2.65;2.13;;;;;;;;;;4985519;28;99294;-76
2023/01/06 06:03:42;;;;;;;4.30;2.08;;;;;;;;;;4987053;28;99250;-76
2023/01/06 06:06:08;;;;;;;2.40;2.17;;;;;;;;;;4986777;28;99918;-76
2023/01/06 06:08:34;;;;;;;3.20;2.10;;;;;;;;;;4986210;28;98788;-75
2023/01/06 06:11:04;;;;;;;2.63;2.10;;;;;;;;;;4986298;28;99267;-76
2023/01/06 06:13:31;;;;;;;9.20;2.92;;;;;;;;;;4986319;28;99311;-76
2023/01/06 06:16:10;;;;;;;3.90;2.17;;;;;;;;;;4986300;28;99440;-75
2023/01/06 06:18:41;;;;;;;2.22;2.00;;;;;;;;;;4990162;28;98817;-76
2023/01/06 06:21:08;;;;;;;3.90;2.20;;;;;;;;;;4986395;28;98573;-76
2023/01/06 06:23:34;;;;;;;2.75;2.40;;;;;;;;;;4985213;28;99472;-75
2023/01/06 06:26:01;;;;;;;3.17;2.05;;;;;;;;;;4985844;28;99281;-75
2023/01/06 06:28:30;;;;;;;5.03;2.40;;;;;;;;;;4985284;28;100692;-76
2023/01/06 06:31:05;;;;;;;4.00;2.38;;;;;;;;;;4986311;28;99687;-76
2023/01/06 06:33:32;;;;;;;2.40;2.15;;;;;;;;;;4986058;28;100425;-76
2023/01/06 06:35:59;;;;;;;4.13;2.90;;;;;;;;;;4985792;28;99298;-75
2023/01/06 06:38:26;;;;;;;3.25;1.90;;;;;;;;;;4985783;28;99523;-76
2023/01/06 06:40:52;;;;;;;5.05;2.20;;;;;;;;;;4989522;28;100005;-76
2023/01/06 06:43:19;;;;;;;3.60;2.10;;;;;;;;;;4986442;28;98784;-75
2023/01/06 06:45:46;;;;;;;5.70;3.03;;;;;;;;;;4985648;28;100514;-76
2023/01/06 06:48:13;;;;;;;4.80;2.63;;;;;;;;;;4986381;28;98942;-76
2023/01/06 06:50:39;;;;;;;3.50;2.33;;;;;;;;;;4984405;28;101340;-76
2023/01/06 06:53:06;;;;;;;4.38;2.58;;;;;;;;;;4986026;28;99211;-76
2023/01/06 06:55:32;;;;;;;4.72;3.00;;;;;;;;;;4985905;28;99334;-76
2023/01/06 06:57:59;;;;;;;3.90;2.97;;;;;;;;;;4985547;28;100384;-78
2023/01/06 07:00:25;;;;;;;3.08;2.83;;;;;;;;;;4986048;28;99339;-78
2023/01/06 07:02:51;;;;;;;4.22;3.28;;;;;;;;;;4989388;28;98949;-78
2023/01/06 07:05:18;;;;;;;5.93;3.53;;;;;;;;;;4985040;28;99915;-78
2023/01/06 07:07:44;;;;;;;4.45;4.07;;;;;;;;;;4986194;28;99966;-78
2023/01/06 07:10:14;;;;;;;3.55;3.22;;;;;;;;;;4985824;28;100175;-78
2023/01/06 07:12:41;;;;;;;5.05;4.35;;;;;;;;;;4984563;28;100080;-80
2023/01/06 07:15:07;;;;;;;4.95;3.63;;;;;;;;;;4985304;28;99260;-80
2023/01/06 07:17:34;;;;;;;6.90;4.10;;;;;;;;;;4985436;28;99296;-81
2023/01/06 07:20:00;;;;;;;6.28;2.92;;;;;;;;;;4984776;28;100049;-81
2023/01/06 07:22:26;;;;;;;3.95;3.70;;;;;;;;;;4989019;28;99143;-81
2023/01/06 07:24:53;;;;;;;2.58;2.45;;;;;;;;;;4984965;28;99070;-80
2023/01/06 07:27:19;;;;;;;4.00;3.60;;;;;;;;;;4985564;28;99854;-79
2023/01/06 07:29:45;;;;;;;4.35;3.95;;;;;;;;;;4985500;28;100601;-79
2023/01/06 07:32:12;;;;;;;3.22;2.42;;;;;;;;;;4985675;28;99088;-80
2023/01/06 07:34:38;;;;;;;2.67;2.58;;;;;;;;;;4985647;28;99445;-80
2023/01/06 07:37:04;;;;;;;3.83;3.03;;;;;;;;;;4985640;28;99253;-79
2023/01/06 07:39:31;;;;;;;4.00;2.70;;;;;;;;;;4983066;28;100359;-80
2023/01/06 07:41:57;;;;;;;3.97;3.67;;;;;;;;;;4985317;28;99759;-81
2023/01/06 07:44:23;;;;;;;1.83;1.75;;;;;;;;;;4988561;28;99412;-80
2023/01/06 07:46:50;;;;;;;2.85;2.65;;;;;;;;;;4984944;28;99280;-80
2023/01/06 07:49:16;;;;;;;3.65;3.40;;;;;;;;;;4985066;28;99236;-80
2023/01/06 07:51:43;;;;;;;2.85;2.60;;;;;;;;;;4986592;28;100216;-79
2023/01/06 07:54:09;;;;;;;6.18;3.38;;;;;;;;;;4985206;28;99131;-79
2023/01/06 07:56:35;;;;;;;3.08;2.88;;;;;;;;;;4985699;28;98537;-79
2023/01/06 07:59:02;;;;;;;5.20;2.97;;;;;;;;;;4985552;28;100201;-82
2023/01/06 08:01:28;;;;;;;4.10;3.30;;;;;;;;;;4984162;28;100283;-80
2023/01/06 08:03:54;;;;;;;4.30;3.63;;;;;;;;;;4984714;28;100988;-79
2023/01/06 08:06:21;;;;;;;4.63;3.53;;;;;;;;;;4988614;28;100098;-79
2023/01/06 08:08:47;;;;;;;2.67;2.00;;;;;;;;;;4984282;28;99969;-79
2023/01/06 08:11:14;;;;;;;5.80;3.30;;;;;;;;;;4984783;28;100283;-79
2023/01/06 08:13:40;;;;;;;5.00;3.20;;;;;;;;;;4984788;28;99080;-79
2023/01/06 08:16:07;;;;;;;5.47;3.50;;;;;;;;;;4984473;28;99877;-79
2023/01/06 08:18:34;;;;;;;14.30;3.72;;;;;;;;;;4986271;28;99048;-79
2023/01/06 08:21:01;;;;;;;4.13;3.13;;;;;;;;;;4986812;28;99981;-78
2023/01/06 08:23:28;;;;;;;4.28;2.72;;;;;;;;;;4991599;28;99911;-79
2023/01/06 08:26:01;;;;;;;3.85;2.70;;;;;;;;;;4990139;28;100184;-78
2023/01/06 08:28:28;;;;;;;8.10;3.40;;;;;;;;;;4989807;28;99328;-79
2023/01/06 08:30:55;;;;;;;8.85;3.10;;;;;;;;;;4988896;28;98577;-78
2023/01/06 08:33:23;;;;;;;5.10;3.03;;;;;;;;;;4986670;28;98972;-79
2023/01/06 08:35:49;;;;;;;6.35;3.03;;;;;;;;;;4985964;28;99490;-80
2023/01/06 08:38:15;;;;;;;9.77;3.13;;;;;;;;;;4986167;28;100428;-78
2023/01/06 08:40:42;;;;;;;13.43;3.75;;;;;;;;;;4986873;28;99236;-79
2023/01/06 08:43:08;;;;;;;20.23;3.53;;;;;;;;;;4985465;28;99319;-78
2023/01/06 08:45:38;;;;;;;10.32;3.05;;;;;;;;;;4987217;28;99220;-78
2023/01/06 08:48:04;;;;;;;7.32;2.35;;;;;;;;;;4986312;28;98673;-78
2023/01/06 08:50:31;;;;;;;7.78;2.63;;;;;;;;;;4991104;28;99144;-77
2023/01/06 08:52:57;;;;;;;11.02;2.58;;;;;;;;;;4990178;28;99341;-79
2023/01/06 08:55:24;;;;;;;11.80;3.13;;;;;;;;;;4988043;28;100441;-80
2023/01/06 08:57:50;;;;;;;12.45;3.00;;;;;;;;;;4987132;28;99100;-79
2023/01/06 09:00:20;;;;;;;12.38;2.67;;;;;;;;;;4989472;28;100123;-78
2023/01/06 09:02:46;;;;;;;9.38;2.58;;;;;;;;;;4987978;28;99806;-77
2023/01/06 09:05:12;;;;;;;9.90;2.22;;;;;;;;;;4987306;28;99973;-78
2023/01/06 09:07:39;;;;;;;16.05;2.60;;;;;;;;;;4987342;28;99894;-78
2023/01/06 09:10:06;;;;;;;11.60;2.47;;;;;;;;;;4988402;28;99711;-78
2023/01/06 09:12:33;;;;;;;8.77;2.50;;;;;;;;;;4989824;28;100253;-77
2023/01/06 09:14:59;;;;;;;8.20;1.88;;;;;;;;;;4987954;28;100470;-78
2023/01/06 09:17:25;;;;;;;9.18;2.60;;;;;;;;;;4986321;28;100372;-79
2023/01/06 09:19:52;;;;;;;13.90;2.65;;;;;;;;;;4987419;28;100993;-77
2023/01/06 09:22:18;;;;;;;12.73;3.65;;;;;;;;;;4987529;28;100219;-77
2023/01/06 09:24:44;;;;;;;9.80;2.03;;;;;;;;;;4986616;28;100018;-79
2023/01/06 09:27:11;;;;;;;9.45;2.03;;;;;;;;;;4987779;28;100095;-79
2023/01/06 09:29:37;;;;;;;9.80;2.17;;;;;;;;;;4987821;28;99965;-77
2023/01/06 09:32:04;;;;;;;7.07;2.50;;;;;;;;;;4990393;28;100280;-78
2023/01/06 09:34:30;;;;;;;9.27;1.85;;;;;;;;;;4988009;28;99530;-78
2023/01/06 09:36:56;;;;;;;9.20;2.22;;;;;;;;;;4987573;28;100181;-76
2023/01/06 09:39:23;;;;;;;13.10;2.38;;;;;;;;;;4986627;28;100026;-80
2023/01/06 09:42:10;;;;;;;13.68;2.15;;;;;;;;;;4989440;28;100969;-77
2023/01/06 09:44:54;;;;;;;11.02;2.28;;;;;;;;;;4995480;28;100219;-77
2023/01/06 09:47:23;;;;;;;23.50;2.72;;;;;;;;;;4987580;28;100356;-77
2023/01/06 09:49:50;;;;;;;6.88;1.80;;;;;;;;;;4987189;28;100181;-77
2023/01/06 09:52:26;;;;;;;8.52;2.25;;;;;;;;;;4987135;28;99910;-79
2023/01/06 09:54:56;;;;;;;7.47;1.92;;;;;;;;;;4989967;28;100491;-78
2023/01/06 09:57:32;;;;;;;10.60;2.05;;;;;;;;;;4987024;28;98546;-78
2023/01/06 10:00:00;;;;;;;12.27;2.38;;;;;;;;;;4987125;28;100279;-77
2023/01/06 10:02:34;;;;;;;7.10;1.63;;;;;;;;;;4986116;28;100116;-76
2023/01/06 10:05:01;;;;;;;11.63;2.65;;;;;;;;;;4986842;28;99456;-77
2023/01/06 10:07:27;;;;;;;11.20;2.97;;;;;;;;;;4985380;28;100481;-77
2023/01/06 10:09:54;;;;;;;9.02;2.08;;;;;;;;;;4986995;28;101303;-76
2023/01/06 10:12:37;;;;;;;7.28;1.75;;;;;;;;;;4986883;28;99059;-77
2023/01/06 10:15:03;;;;;;;;;;;;;;;;;;4986810;28;99898;-77
2023/01/06 10:17:52;;;;;;;10.95;2.42;;;;;;;;;;4988770;28;129849;-77
2023/01/06 10:20:37;;;;;;;6.40;1.77;;;;;;;;;;4987253;28;99179;-76
2023/01/06 10:23:09;;;;;;;11.38;2.28;;;;;;;;;;4987155;28;100477;-76
2023/01/06 10:25:40;;;;;;;11.05;1.85;;;;;;;;;;4987001;28;100053;-76
2023/01/06 10:28:18;;;;;;;13.07;1.77;;;;;;;;;;4985814;28;99441;-76
2023/01/06 10:30:50;;;;;;;6.47;1.95;;;;;;;;;;4986466;28;99893;-76
2023/01/06 10:33:24;;;;;;;13.87;2.50;;;;;;;;;;4986477;28;99961;-76
2023/01/06 10:35:56;;;;;;;6.40;1.52;;;;;;;;;;4985932;28;101126;-75
2023/01/06 10:38:31;;;;;;;6.47;1.75;;;;;;;;;;4986577;28;100422;-78
2023/01/06 10:41:04;;;;;;;13.52;1.95;;;;;;;;;;4990010;28;99192;-77
2023/01/06 10:43:30;;;;;;;11.82;3.05;;;;;;;;;;4985862;28;99483;-75
2023/01/06 10:45:57;;;;;;;9.70;1.80;;;;;;;;;;4985983;28;100032;-76
2023/01/06 10:48:25;;;;;;;9.27;1.80;;;;;;;;;;4986138;28;98559;-76
2023/01/06 10:50:52;;;;;;;5.43;1.60;;;;;;;;;;4985996;28;99580;-76
2023/01/06 10:53:20;;;;;;;9.63;2.50;;;;;;;;;;4987247;28;99155;-76
2023/01/06 10:55:46;;;;;;;6.75;1.92;;;;;;;;;;4986377;28;100209;-76
2023/01/06 10:58:31;;;;;;;14.25;1.60;;;;;;;;;;4986031;28;100136;-76
2023/01/06 11:01:08;;;;;;;7.28;1.75;;;;;;;;;;4986226;28;100361;-77
2023/01/06 11:03:35;;;;;;;6.68;1.80;;;;;;;;;;4988814;28;99245;-77
2023/01/06 11:06:17;;;;;;;9.65;1.90;;;;;;;;;;4987494;28;99439;-77
2023/01/06 11:08:43;;;;;;;8.38;1.75;;;;;;;;;;4986227;28;99293;-77
2023/01/06 11:11:11;;;;;;;9.00;1.67;;;;;;;;;;4985165;28;100209;-75
2023/01/06 11:13:54;;;;;;;;;;;;;;;;;;4986529;28;99966;-77
2023/01/06 11:16:20;;;;;;;6.00;1.50;;;;;;;;;;4986439;28;129250;-77
2023/01/06 11:18:54;;;;;;;5.75;2.13;;;;;;;;;;4984947;28;99198;-77
2023/01/06 11:21:20;;;;;;;8.13;1.88;;;;;;;;;;4986101;28;99110;-77
2023/01/06 11:23:47;;;;;;;10.18;2.22;;;;;;;;;;4985175;28;99731;-77
2023/01/06 11:26:15;;;;;;;7.65;1.98;;;;;;;;;;4988863;28;100165;-77
2023/01/06 11:28:42;;;;;;;8.30;2.15;;;;;;;;;;4986044;28;99053;-77
2023/01/06 11:31:09;;;;;;;8.05;1.70;;;;;;;;;;4985856;28;99697;-77
2023/01/06 11:33:37;;;;;;;9.38;1.75;;;;;;;;;;4985379;28;99938;-77
2023/01/06 11:36:10;;;;;;;5.60;1.75;;;;;;;;;;4985632;28;100028;-76
2023/01/06 11:38:47;;;;;;;4.95;1.75;;;;;;;;;;4984363;28;99494;-76
2023/01/06 11:41:20;;;;;;;9.95;1.70;;;;;;;;;;4985841;28;99123;-76
2023/01/06 11:43:47;;;;;;;7.45;1.58;;;;;;;;;;4984990;28;98576;-76
2023/01/06 11:46:19;;;;;;;7.88;1.85;;;;;;;;;;4987918;28;99444;-77
2023/01/06 11:48:47;;;;;;;9.43;1.70;;;;;;;;;;4984495;28;99830;-77
2023/01/06 11:51:14;;;;;;;4.75;1.52;;;;;;;;;;4986025;28;99807;-76
2023/01/06 11:53:55;;;;;;;8.60;1.63;;;;;;;;;;4984643;28;99171;-77
2023/01/06 11:56:21;;;;;;;6.32;1.48;;;;;;;;;;4985381;28;100168;-76
2023/01/06 11:58:48;;;;;;;8.38;1.55;;;;;;;;;;4988001;28;101508;-76
2023/01/06 12:01:18;;;;;;;5.88;1.42;;;;;;;;;;4989185;28;100478;-75
2023/01/06 12:03:46;;;;;;;5.55;1.98;;;;;;;;;;4987132;28;99329;-75
2023/01/06 12:06:17;;;;;;;7.60;1.80;;;;;;;;;;4985540;28;98655;-75
2023/01/06 12:09:02;;;;;;;4.38;1.38;;;;;;;;;;4988562;28;100452;-76
2023/01/06 12:11:34;;;;;;;5.63;1.60;;;;;;;;;;4984589;28;99690;-76
2023/01/06 12:14:01;;;;;;;6.43;1.40;;;;;;;;;;4984605;28;99937;-76
2023/01/06 12:16:53;;;;;;;11.45;1.73;;;;;;;;;;4985579;28;99713;-76
2023/01/06 12:19:30;;;;;;;4.18;1.52;;;;;;;;;;4985639;28;99489;-76
2023/01/06 12:21:57;;;;;;;8.93;1.65;;;;;;;;;;4984214;28;99394;-76
2023/01/06 12:24:24;;;;;;;10.48;1.98;;;;;;;;;;4985216;28;99936;-76
2023/01/06 12:26:51;;;;;;;5.40;1.92;;;;;;;;;;4982809;28;100348;-76
2023/01/06 12:29:19;;;;;;;6.25;1.95;;;;;;;;;;4984285;28;100716;-76
2023/01/06 12:31:51;;;;;;;4.53;1.38;;;;;;;;;;4988485;28;100013;-76
2023/01/06 12:34:28;;;;;;;10.00;2.20;;;;;;;;;;4983957;28;99990;-76
2023/01/06 12:37:03;;;;;;;10.00;1.85;;;;;;;;;;4984596;28;100278;-76
2023/01/06 12:39:48;;;;;;;2.88;1.27;;;;;;;;;;4983832;28;100091;-76
2023/01/06 12:42:21;;;;;;;6.57;1.20;;;;;;;;;;4984011;28;99992;-76
2023/01/06 12:44:50;;;;;;;7.53;1.85;;;;;;;;;;4984525;28;100434;-76
2023/01/06 12:47:30;;;;;;;8.10;1.85;;;;;;;;;;4984619;28;100302;-75
2023/01/06 12:49:59;;;;;;;7.78;1.60;;;;;;;;;;4984011;28;99140;-76
2023/01/06 12:52:34;;;;;;;7.50;1.83;;;;;;;;;;4984305;28;99096;-75
2023/01/06 12:55:00;;;;;;;7.38;1.60;;;;;;;;;;4987651;28;99379;-76
2023/01/06 12:57:45;;;;;;;4.85;1.10;;;;;;;;;;4983627;28;100247;-75
2023/01/06 13:00:29;;;;;;;8.02;1.40;;;;;;;;;;4984445;28;99686;-76
2023/01/06 13:03:00;;;;;;;7.30;1.85;;;;;;;;;;4983951;28;99051;-76
2023/01/06 13:05:36;;;;;;;9.50;1.88;;;;;;;;;;4983906;28;99305;-75
2023/01/06 13:08:14;;;;;;;6.50;1.88;;;;;;;;;;4984480;28;99625;-74
2023/01/06 13:11:00;;;;;;;9.80;1.40;;;;;;;;;;4982772;28;99102;-76
2023/01/06 13:13:48;;;;;;;5.03;1.27;;;;;;;;;;4983707;28;99989;-74
2023/01/06 13:16:19;;;;;;;3.17;1.33;;;;;;;;;;4984045;28;99457;-75
2023/01/06 13:18:55;;;;;;;7.28;1.50;;;;;;;;;;4986406;28;100106;-75
2023/01/06 13:21:22;;;;;;;5.22;1.27;;;;;;;;;;4984290;28;99225;-77
2023/01/06 13:23:48;;;;;;;6.50;1.75;;;;;;;;;;4984071;28;99138;-75
2023/01/06 13:26:33;;;;;;;6.43;1.30;;;;;;;;;;4983808;28;98590;-76
2023/01/06 13:29:06;;;;;;;5.63;1.40;;;;;;;;;;4983668;28;99641;-76
2023/01/06 13:31:39;;;;;;;9.60;1.95;;;;;;;;;;4982560;28;100029;-76
2023/01/06 13:34:06;;;;;;;7.25;1.85;;;;;;;;;;4983645;28;100666;-76
2023/01/06 13:36:43;;;;;;;4.78;2.42;;;;;;;;;;4983484;28;101002;-76
2023/01/06 13:39:20;;;;;;;8.23;1.75;;;;;;;;;;4986467;28;100017;-76
2023/01/06 13:41:50;;;;;;;7.75;1.83;;;;;;;;;;4990164;28;99863;-76
2023/01/06 13:44:21;;;;;;;5.45;1.75;;;;;;;;;;4987087;28;100109;-76
2023/01/06 13:46:49;;;;;;;7.60;1.65;;;;;;;;;;4986174;28;100274;-76
2023/01/06 13:49:15;;;;;;;7.90;1.85;;;;;;;;;;4987563;28;99910;-76
2023/01/06 13:51:43;;;;;;;8.82;2.85;;;;;;;;;;4986118;28;100328;-76
2023/01/06 13:54:28;;;;;;;8.73;1.70;;;;;;;;;;4987045;28;100290;-76
2023/01/06 13:57:24;;;;;;;6.35;1.95;;;;;;;;;;4986161;28;102459;-76
2023/01/06 13:59:59;;;;;;;5.53;1.75;;;;;;;;;;4980730;28;101778;-76
2023/01/06 14:02:34;;;;;;;8.90;1.60;;;;;;;;;;4989932;28;100064;-75
2023/01/06 14:05:02;;;;;;;10.30;1.85;;;;;;;;;;4986937;28;99988;-76
2023/01/06 14:07:30;;;;;;;4.82;2.08;;;;;;;;;;4985996;28;100057;-76
2023/01/06 14:09:56;;;;;;;7.25;1.60;;;;;;;;;;4986627;28;100318;-75
2023/01/06 14:12:23;;;;;;;7.32;1.75;;;;;;;;;;4986400;28;99244;-75
2023/01/06 14:15:00;;;;;;;8.60;1.45;;;;;;;;;;4986602;28;100194;-75
2023/01/06 14:17:45;;;;;;;2.67;1.35;;;;;;;;;;4986363;28;100210;-76
2023/01/06 14:20:30;;;;;;;7.03;1.50;;;;;;;;;;4986385;28;99180;-75
2023/01/06 14:23:04;;;;;;;5.20;1.30;;;;;;;;;;4986221;28;99291;-76
2023/01/06 14:25:35;;;;;;;6.80;1.35;;;;;;;;;;4989436;28;100221;-75
2023/01/06 14:28:01;;;;;;;10.45;1.60;;;;;;;;;;4986368;28;99594;-75
2023/01/06 14:30:29;;;;;;;6.85;2.00;;;;;;;;;;4986621;28;100266;-75
2023/01/06 14:33:02;;;;;;;7.18;2.08;;;;;;;;;;4986475;28;100211;-76
2023/01/06 14:35:37;;;;;;;3.97;1.23;;;;;;;;;;4986014;28;99219;-76
2023/01/06 14:38:05;;;;;;;8.23;2.17;;;;;;;;;;4986616;28;100607;-76
2023/01/06 14:40:34;;;;;;;5.40;1.38;;;;;;;;;;4986425;28;100006;-75
2023/01/06 14:43:04;;;;;;;3.53;1.77;;;;;;;;;;4985809;28;98530;-75
2023/01/06 14:45:35;;;;;;;5.45;1.40;;;;;;;;;;4985914;28;100173;-74
2023/01/06 14:48:15;;;;;;;5.25;1.30;;;;;;;;;;4988282;28;99274;-75
2023/01/06 14:50:42;;;;;;;3.25;1.55;;;;;;;;;;4985707;28;99330;-75
2023/01/06 14:53:20;;;;;;;2.80;1.40;;;;;;;;;;4986179;28;100080;-77
2023/01/06 14:55:48;;;;;;;6.03;1.50;;;;;;;;;;4985089;28;99145;-75